Back to Top

Language: 

My Weather Underground Personal Weather Station Historical Data with Graphs...

Delerius Weather Station Historical Data
Daily Summary for February 9, 2018 Units:  Metric    English   Both
« Previous Day
Next Day »
Daily Weekly Monthly Yearly Custom
  High: Low: Average:
Temperature: 7.1 °C 0.5 °C 4.2 °C
Dew Point: 5.9 °C -2.2 °C 1.3 °C
Humidity: 95 % 57 % 83 %
Wind Speed: 27.4 km/h 0 km/h 13.4 km/h
Wind Gust: 49.9 km/h - -
Wind:- - WNW
Pressure: 1015.5 hPa 1000.9 hPa -
Precipitation: 0.51 mm    
Historical Graphs
 
 
Tabular Data for February 9, 2018
Time Temperature Dew Point Pressure Wind Wind Speed Wind Gust Humidity Rainfall Rate (Hourly) solar Conditions
00:00 7.1 °C 5.9 °C 1003.6 hPa SW 12.9 km/h 19.3 km/h 92 % 0 mm 0 W/m2
00:05 7 °C 5.8 °C 1003.6 hPa SW 12.9 km/h 20.9 km/h 92 % 0 mm 0 W/m2
00:10 7 °C 5.8 °C 1003.6 hPa SW 12.9 km/h 17.7 km/h 92 % 0 mm 0 W/m2
00:15 6.9 °C 5.7 °C 1003.3 hPa SW 12.9 km/h 20.9 km/h 92 % 0 mm 0 W/m2
00:20 6.9 °C 5.7 °C 1003.3 hPa SSW 11.3 km/h 19.3 km/h 92 % 0 mm 0 W/m2
00:25 6.9 °C 5.8 °C 1003.3 hPa SSW 12.9 km/h 16.1 km/h 93 % 0 mm 0 W/m2
00:30 6.9 °C 5.8 °C 1003.3 hPa SW 12.9 km/h 16.1 km/h 93 % 0 mm 0 W/m2
00:35 6.9 °C 5.8 °C 1003.3 hPa SW 12.9 km/h 19.3 km/h 93 % 0 mm 0 W/m2
00:40 6.8 °C 5.7 °C 1002.9 hPa SSW 9.7 km/h 16.1 km/h 93 % 0 mm 0 W/m2
00:45 6.8 °C 5.7 °C 1002.9 hPa SSW 14.5 km/h 20.9 km/h 93 % 0 mm 0 W/m2
00:50 6.8 °C 5.7 °C 1002.9 hPa SSW 12.9 km/h 19.3 km/h 93 % 0 mm 0 W/m2
00:55 6.8 °C 5.7 °C 1002.9 hPa SW 11.3 km/h 14.5 km/h 93 % 0 mm 0 W/m2
01:00 6.8 °C 5.7 °C 1002.9 hPa SW 12.9 km/h 17.7 km/h 93 % 0 mm 0 W/m2
01:05 6.8 °C 5.7 °C 1002.9 hPa SW 9.7 km/h 16.1 km/h 93 % 0 mm 0 W/m2
01:10 6.8 °C 5.7 °C 1002.9 hPa SW 11.3 km/h 17.7 km/h 93 % 0 mm 0 W/m2
01:15 6.8 °C 5.7 °C 1002.9 hPa WSW 6.4 km/h 12.9 km/h 93 % 0 mm 0 W/m2
01:20 6.8 °C 5.7 °C 1002.6 hPa WSW 8 km/h 12.9 km/h 93 % 0 mm 0 W/m2
01:25 6.8 °C 5.7 °C 1002.9 hPa WSW 6.4 km/h 11.3 km/h 93 % 0 mm 0 W/m2
01:30 6.8 °C 5.7 °C 1002.6 hPa WNW 6.4 km/h 11.3 km/h 93 % 0 mm 0 W/m2
01:35 6.7 °C 5.7 °C 1002.6 hPa WNW 6.4 km/h 9.7 km/h 93 % 0 mm 0 W/m2
01:40 6.6 °C 5.6 °C 1002.6 hPa NW 3.2 km/h 11.3 km/h 93 % 0 mm 0 W/m2
01:45 6.4 °C 5.3 °C 1002.6 hPa WNW 8 km/h 16.1 km/h 93 % 0 mm 0 W/m2
01:50 6.3 °C 5.3 °C 1002.6 hPa WNW 8 km/h 12.9 km/h 93 % 0 mm 0 W/m2
01:55 6.2 °C 5.2 °C 1002.6 hPa WNW 11.3 km/h 16.1 km/h 93 % 0 mm 0 W/m2
02:00 6.2 °C 5.2 °C 1002.6 hPa WNW 9.7 km/h 12.9 km/h 93 % 0 mm 0 W/m2
02:05 6.1 °C 5.1 °C 1002.6 hPa WNW 9.7 km/h 14.5 km/h 93 % 0 mm 0 W/m2
02:10 6.1 °C 5.1 °C 1002.6 hPa WNW 4.8 km/h 8 km/h 93 % 0 mm 0 W/m2
02:15 6.1 °C 5.1 °C 1002.6 hPa WNW 4.8 km/h 8 km/h 93 % 0 mm 0 W/m2
02:20 6 °C 4.9 °C 1002.3 hPa WNW 3.2 km/h 8 km/h 93 % 0 mm 0 W/m2
02:25 5.9 °C 4.8 °C 1002.3 hPa WNW 1.6 km/h 6.4 km/h 93 % 0 mm 0 W/m2
02:30 5.8 °C 4.8 °C 1001.9 hPa Calm   1.6 km/h 93 % 0 mm 0 W/m2
02:35 5.7 °C 4.7 °C 1002.3 hPa WNW 1.6 km/h 3.2 km/h 93 % 0 mm 0 W/m2
02:40 5.7 °C 4.7 °C 1001.9 hPa Calm     93 % 0 mm 0 W/m2
02:45 5.6 °C 4.6 °C 1001.9 hPa Calm     93 % 0 mm 0 W/m2
02:50 5.4 °C 4.3 °C 1001.6 hPa Calm     93 % 0 mm 0 W/m2
02:55 5.2 °C 4.2 °C 1001.6 hPa Calm     93 % 0 mm 0 W/m2
03:00 5.1 °C 4.1 °C 1001.6 hPa Calm     93 % 0 mm 0 W/m2
03:05 5 °C 3.9 °C 1001.6 hPa Calm     93 % 0 mm 0 W/m2
03:10 4.9 °C 3.9 °C 1001.6 hPa Calm     93 % 0 mm 0 W/m2
03:15 4.9 °C 3.9 °C 1001.6 hPa Calm     93 % 0 mm 0 W/m2
03:20 4.8 °C 3.8 °C 1001.6 hPa Calm     93 % 0 mm 0 W/m2
03:25 4.8 °C 3.9 °C 1001.2 hPa Calm     94 % 0 mm 0 W/m2
03:30 4.7 °C 3.8 °C 1001.2 hPa Calm     94 % 0 mm 0 W/m2
03:36 4.7 °C 3.8 °C 1001.2 hPa WNW 1.6 km/h 4.8 km/h 94 % 0 mm 0 W/m2
03:41 4.7 °C 3.8 °C 1001.2 hPa Calm     94 % 0 mm 0 W/m2
03:46 4.7 °C 3.8 °C 1001.2 hPa WNW 1.6 km/h 3.2 km/h 94 % 0 mm 0 W/m2
03:51 4.7 °C 3.8 °C 1001.2 hPa WNW 4.8 km/h 8 km/h 94 % 0 mm 0 W/m2
03:56 4.7 °C 3.8 °C 1001.2 hPa WNW 4.8 km/h 8 km/h 94 % 0 mm 0 W/m2
04:01 4.7 °C 3.8 °C 1001.2 hPa WNW 4.8 km/h 9.7 km/h 94 % 0 mm 0 W/m2
04:06 4.6 °C 3.7 °C 1001.2 hPa WNW 1.6 km/h 6.4 km/h 94 % 0 mm 0 W/m2
04:11 4.5 °C 3.6 °C 1001.2 hPa Calm     94 % 0 mm 0 W/m2
04:16 4.4 °C 3.5 °C 1001.2 hPa Calm     94 % 0 mm 0 W/m2
04:21 4.3 °C 3.4 °C 1001.2 hPa Calm     94 % 0 mm 0 W/m2
04:26 4.2 °C 3.3 °C 1000.9 hPa Calm     94 % 0 mm 0 W/m2
04:31 4.2 °C 3.3 °C 1001.2 hPa Calm   3.2 km/h 94 % 0 mm 0 W/m2
04:36 4.1 °C 3.2 °C 1001.2 hPa Calm     94 % 0 mm 0 W/m2
04:41 4.1 °C 3.2 °C 1001.2 hPa Calm     94 % 0 mm 0 W/m2
04:46 4.1 °C 3.2 °C 1001.2 hPa Calm     94 % 0 mm 0 W/m2
04:51 4.2 °C 3.4 °C 1001.2 hPa WNW 1.6 km/h 6.4 km/h 95 % 0 mm 0 W/m2
04:56 4.2 °C 3.4 °C 1001.2 hPa WNW 1.6 km/h 4.8 km/h 95 % 0 mm 0 W/m2
05:01 4.2 °C 3.4 °C 1001.2 hPa Calm   1.6 km/h 95 % 0 mm 0 W/m2
05:06 4.2 °C 3.4 °C 1001.2 hPa West 1.6 km/h 8 km/h 95 % 0 mm 0 W/m2
05:11 4.2 °C 3.4 °C 1001.2 hPa West 1.6 km/h 6.4 km/h 95 % 0 mm 0 W/m2
05:16 4.3 °C 3.6 °C 1001.2 hPa West 4.8 km/h 9.7 km/h 95 % 0 mm 0 W/m2
05:21 4.4 °C 3.5 °C 1001.6 hPa WSW 17.7 km/h 24.1 km/h 94 % 0 mm 0 W/m2
05:26 4.6 °C 3.7 °C 1001.6 hPa West 22.5 km/h 33.8 km/h 94 % 0.25 mm 0 W/m2
05:31 4.6 °C 3.6 °C 1001.6 hPa West 17.7 km/h 30.6 km/h 93 % 0.25 mm 0 W/m2
05:36 4.3 °C 3.1 °C 1001.6 hPa West 16.1 km/h 22.5 km/h 92 % 0.25 mm 0 W/m2
05:41 4.2 °C 3 °C 1001.6 hPa WNW 17.7 km/h 24.1 km/h 92 % 0.25 mm 0 W/m2
05:46 4 °C 2.8 °C 1001.6 hPa West 12.9 km/h 17.7 km/h 92 % 0.25 mm 0 W/m2
05:51 3.9 °C 2.7 °C 1001.6 hPa West 12.9 km/h 22.5 km/h 92 % 0.25 mm 0 W/m2
05:56 3.7 °C 2.5 °C 1001.9 hPa West 16.1 km/h 22.5 km/h 92 % 0.25 mm 0 W/m2
06:01 3.6 °C 2.4 °C 1001.9 hPa West 11.3 km/h 19.3 km/h 92 % 0.25 mm 0 W/m2
06:07 3.5 °C 2.3 °C 1001.9 hPa West 12.9 km/h 19.3 km/h 92 % 0.25 mm 0 W/m2
06:12 3.4 °C 2.2 °C 1001.9 hPa West 16.1 km/h 22.5 km/h 92 % 0.25 mm 0 W/m2
06:17 3.3 °C 2.1 °C 1001.6 hPa West 14.5 km/h 20.9 km/h 92 % 0.25 mm 0 W/m2
06:22 3.3 °C 2.1 °C 1001.9 hPa West 14.5 km/h 22.5 km/h 92 % 0 mm 0 W/m2
06:27 3.2 °C 2 °C 1001.9 hPa West 12.9 km/h 29 km/h 92 % 0 mm 0 W/m2
06:32 3.2 °C 2 °C 1001.9 hPa West 16.1 km/h 25.7 km/h 92 % 0 mm 0 W/m2
06:37 3.2 °C 2 °C 1001.9 hPa WSW 14.5 km/h 25.7 km/h 92 % 0 mm 0 W/m2
06:42 3.3 °C 2.1 °C 1001.9 hPa West 12.9 km/h 22.5 km/h 92 % 0 mm 0 W/m2
06:47 3.3 °C 2.3 °C 1001.9 hPa West 14.5 km/h 22.5 km/h 93 % 0 mm 0 W/m2
06:52 3.3 °C 2.3 °C 1001.9 hPa West 14.5 km/h 20.9 km/h 93 % 0 mm 0 W/m2
06:57 3.4 °C 2.2 °C 1001.9 hPa West 17.7 km/h 24.1 km/h 92 % 0 mm 0 W/m2
07:02 3.4 °C 2.2 °C 1001.9 hPa West 17.7 km/h 32.2 km/h 92 % 0.25 mm 0 W/m2
07:07 3.4 °C 2.2 °C 1002.3 hPa West 16.1 km/h 29 km/h 92 % 0.25 mm 0 W/m2
07:12 3.5 °C 2.3 °C 1002.3 hPa WSW 17.7 km/h 30.6 km/h 92 % 0.25 mm 0 W/m2
07:17 3.4 °C 2.2 °C 1002.3 hPa West 16.1 km/h 24.1 km/h 92 % 0.25 mm 0 W/m2
07:22 3.4 °C 2.1 °C 1002.3 hPa West 16.1 km/h 22.5 km/h 91 % 0.25 mm 0 W/m2
07:27 3.4 °C 2.1 °C 1002.3 hPa West 22.5 km/h 32.2 km/h 91 % 0.25 mm 0 W/m2
07:32 3.4 °C 2.1 °C 1002.3 hPa West 20.9 km/h 32.2 km/h 91 % 0.25 mm 0 W/m2
07:37 3.4 °C 2.1 °C 1002.6 hPa WNW 16.1 km/h 24.1 km/h 91 % 0.25 mm 0 W/m2
07:42 3.4 °C 2.1 °C 1002.6 hPa West 17.7 km/h 25.7 km/h 91 % 0.25 mm 5 W/m2
07:47 3.4 °C 2.1 °C 1002.6 hPa West 14.5 km/h 25.7 km/h 91 % 0.25 mm 5 W/m2
07:52 3.3 °C 1.9 °C 1002.6 hPa West 19.3 km/h 30.6 km/h 91 % 0.25 mm 7 W/m2
07:57 3.3 °C 1.9 °C 1002.9 hPa West 22.5 km/h 37 km/h 91 % 0.25 mm 11 W/m2
08:02 3.4 °C 2.1 °C 1002.9 hPa WNW 22.5 km/h 32.2 km/h 91 % 0 mm 14 W/m2
08:07 3.4 °C 2.1 °C 1002.9 hPa WNW 14.5 km/h 20.9 km/h 91 % 0 mm 18 W/m2
08:12 3.4 °C 2.1 °C 1002.9 hPa WNW 19.3 km/h 25.7 km/h 91 % 0 mm 19 W/m2
08:17 3.4 °C 2.1 °C 1002.9 hPa WNW 20.9 km/h 33.8 km/h 91 % 0 mm 19 W/m2
08:22 3.4 °C 2.1 °C 1002.9 hPa West 14.5 km/h 25.7 km/h 91 % 0 mm 23 W/m2
08:27 3.4 °C 2.1 °C 1002.9 hPa WNW 17.7 km/h 25.7 km/h 91 % 0 mm 21 W/m2
08:32 3.4 °C 1.9 °C 1002.9 hPa WNW 19.3 km/h 30.6 km/h 90 % 0 mm 16 W/m2
08:37 3.4 °C 1.9 °C 1003.3 hPa WNW 19.3 km/h 29 km/h 90 % 0 mm 16 W/m2
08:43 3.3 °C 1.8 °C 1003.3 hPa WNW 24.1 km/h 37 km/h 90 % 0 mm 18 W/m2
08:48 3.2 °C 1.7 °C 1002.9 hPa WNW 24.1 km/h 35.4 km/h 90 % 0 mm 19 W/m2
08:53 3.2 °C 1.7 °C 1003.3 hPa WNW 14.5 km/h 24.1 km/h 90 % 0 mm 14 W/m2
08:58 3.2 °C 1.7 °C 1003.6 hPa WNW 16.1 km/h 29 km/h 90 % 0 mm 19 W/m2
09:03 3.2 °C 1.7 °C 1003.6 hPa WNW 22.5 km/h 41.8 km/h 90 % 0 mm 33 W/m2
09:08 3.3 °C 1.8 °C 1003.6 hPa WNW 25.7 km/h 40.2 km/h 90 % 0 mm 165 W/m2
09:13 3.4 °C 1.9 °C 1003.6 hPa WNW 19.3 km/h 30.6 km/h 90 % 0 mm 162 W/m2
09:18 3.6 °C 2.1 °C 1003.9 hPa WNW 25.7 km/h 37 km/h 90 % 0 mm 199 W/m2
09:23 3.6 °C 2.1 °C 1003.9 hPa WNW 19.3 km/h 33.8 km/h 90 % 0 mm 190 W/m2
09:28 3.7 °C 2.1 °C 1004.3 hPa WNW 19.3 km/h 33.8 km/h 89 % 0 mm 223 W/m2
09:33 3.9 °C 2.3 °C 1004.3 hPa WNW 24.1 km/h 33.8 km/h 89 % 0 mm 77 W/m2
09:38 4 °C 2.3 °C 1004.3 hPa WNW 17.7 km/h 32.2 km/h 89 % 0 mm 267 W/m2
09:43 4.2 °C 2.4 °C 1004.6 hPa WNW 24.1 km/h 37 km/h 88 % 0 mm 190 W/m2
09:48 4.3 °C 2.5 °C 1004.6 hPa WNW 19.3 km/h 30.6 km/h 88 % 0 mm 102 W/m2
09:53 4.4 °C 2.4 °C 1004.6 hPa WNW 24.1 km/h 41.8 km/h 87 % 0 mm 278 W/m2
09:58 4.6 °C 2.4 °C 1005 hPa NW 17.7 km/h 32.2 km/h 86 % 0 mm 334 W/m2
10:03 4.7 °C 2.6 °C 1005 hPa WNW 20.9 km/h 38.6 km/h 86 % 0 mm 338 W/m2
10:08 4.8 °C 2.5 °C 1005 hPa NW 16.1 km/h 25.7 km/h 85 % 0 mm 338 W/m2
10:13 4.9 °C 2.6 °C 1005 hPa WNW 22.5 km/h 46.7 km/h 85 % 0 mm 121 W/m2
10:18 4.9 °C 2.4 °C 1005.3 hPa WNW 19.3 km/h 30.6 km/h 84 % 0 mm 390 W/m2
10:23 4.9 °C 2.3 °C 1005.3 hPa NW 17.7 km/h 37 km/h 83 % 0 mm 255 W/m2
10:28 4.9 °C 2.1 °C 1005.3 hPa NW 24.1 km/h 37 km/h 82 % 0 mm 163 W/m2
10:33 4.8 °C 2 °C 1005.6 hPa WNW 27.4 km/h 43.5 km/h 82 % 0 mm 158 W/m2
10:38 4.7 °C 1.9 °C 1005.6 hPa NW 19.3 km/h 32.2 km/h 82 % 0 mm 167 W/m2
10:43 4.7 °C 1.9 °C 1006 hPa NW 20.9 km/h 32.2 km/h 82 % 0 mm 186 W/m2
10:48 4.7 °C 1.9 °C 1006 hPa WNW 24.1 km/h 45.1 km/h 82 % 0 mm 253 W/m2
10:53 4.7 °C 1.9 °C 1006 hPa WNW 20.9 km/h 32.2 km/h 82 % 0 mm 192 W/m2
10:58 4.8 °C 1.8 °C 1006.3 hPa NW 20.9 km/h 32.2 km/h 81 % 0 mm 332 W/m2
11:03 4.9 °C 1.9 °C 1006.7 hPa NW 17.7 km/h 41.8 km/h 81 % 0 mm 469 W/m2
11:08 5.1 °C 1.8 °C 1006.7 hPa NW 20.9 km/h 40.2 km/h 79 % 0 mm 211 W/m2
11:13 5.2 °C 1.7 °C 1006.7 hPa NW 20.9 km/h 37 km/h 78 % 0 mm 176 W/m2
11:18 5.3 °C 1.6 °C 1007 hPa NW 17.7 km/h 29 km/h 77 % 0 mm 250 W/m2
11:23 5.3 °C 1.2 °C 1007 hPa NW 20.9 km/h 33.8 km/h 75 % 0 mm 190 W/m2
11:29 5.4 °C 1.3 °C 1007 hPa NW 24.1 km/h 41.8 km/h 75 % 0 mm 255 W/m2
11:34 5.4 °C 1.3 °C 1007.3 hPa NW 22.5 km/h 38.6 km/h 75 % 0 mm 204 W/m2
11:39 5.3 °C 1.1 °C 1007.3 hPa NW 16.1 km/h 37 km/h 74 % 0 mm 213 W/m2
11:44 5.2 °C 0.9 °C 1007.3 hPa NW 22.5 km/h 35.4 km/h 74 % 0 mm 199 W/m2
11:49 5.2 °C 0.9 °C 1007.3 hPa WNW 24.1 km/h 45.1 km/h 74 % 0 mm 176 W/m2
11:54 5.2 °C 0.9 °C 1007.7 hPa NW 19.3 km/h 32.2 km/h 74 % 0 mm 162 W/m2
11:59 5.4 °C 0.9 °C 1007.7 hPa WNW 24.1 km/h 43.5 km/h 73 % 0 mm 339 W/m2
12:04 5.6 °C 0.8 °C 1007.7 hPa NW 27.4 km/h 40.2 km/h 71 % 0 mm 517 W/m2
12:09 5.6 °C 0.8 °C 1007.7 hPa NW 22.5 km/h 38.6 km/h 71 % 0 mm 406 W/m2
12:14 5.6 °C 0.6 °C 1008 hPa NW 25.7 km/h 41.8 km/h 70 % 0 mm 192 W/m2
12:19 5.4 °C 0.2 °C 1008 hPa NW 25.7 km/h 45.1 km/h 69 % 0 mm 243 W/m2
12:24 5.5 °C 0.7 °C 1008 hPa NW 16.1 km/h 30.6 km/h 71 % 0 mm 165 W/m2
12:29 5.4 °C 0.2 °C 1008 hPa NW 27.4 km/h 45.1 km/h 69 % 0 mm 137 W/m2
12:34 5.6 °C 0.3 °C 1008 hPa NW 20.9 km/h 35.4 km/h 69 % 0 mm 445 W/m2
12:39 5.8 °C 0.6 °C 1008 hPa NW 19.3 km/h 46.7 km/h 69 % 0 mm 429 W/m2
12:44 6 °C 0.3 °C 1008.4 hPa WNW 24.1 km/h 35.4 km/h 67 % 0 mm 443 W/m2
12:49 6.2 °C 0.5 °C 1008.4 hPa NW 19.3 km/h 32.2 km/h 67 % 0 mm 418 W/m2
12:54 6.2 °C -0.1 °C 1008.4 hPa NW 25.7 km/h 38.6 km/h 64 % 0 mm 410 W/m2
12:59 6.2 °C -0.6 °C 1008.4 hPa NW 20.9 km/h 38.6 km/h 62 % 0 mm 406 W/m2
13:04 6.1 °C -0.7 °C 1008.7 hPa NW 22.5 km/h 33.8 km/h 62 % 0 mm 406 W/m2
13:09 6.1 °C -0.7 °C 1008.7 hPa NW 22.5 km/h 40.2 km/h 62 % 0 mm 399 W/m2
13:14 6.2 °C -0.6 °C 1008.7 hPa WNW 19.3 km/h 30.6 km/h 62 % 0 mm 396 W/m2
13:19 6.3 °C -0.9 °C 1009 hPa NW 25.7 km/h 46.7 km/h 60 % 0 mm 394 W/m2
13:24 6.3 °C -1.1 °C 1009 hPa NW 27.4 km/h 43.5 km/h 59 % 0 mm 388 W/m2
13:29 6.3 °C -0.7 °C 1009 hPa NW 17.7 km/h 32.2 km/h 61 % 0 mm 378 W/m2
13:34 6.4 °C -1.3 °C 1009 hPa NW 27.4 km/h 49.9 km/h 58 % 0 mm 385 W/m2
13:39 6.4 °C -1.3 °C 1009.4 hPa NW 25.7 km/h 38.6 km/h 58 % 0 mm 383 W/m2
13:44 6.3 °C -1.6 °C 1009.4 hPa NW 24.1 km/h 35.4 km/h 57 % 0 mm 373 W/m2
13:49 6.3 °C -1.4 °C 1009.4 hPa NW 24.1 km/h 40.2 km/h 58 % 0 mm 362 W/m2
13:54 6.3 °C -1.4 °C 1009.4 hPa NW 22.5 km/h 38.6 km/h 58 % 0 mm 366 W/m2
13:59 6.3 °C -1.4 °C 1009.4 hPa NW 25.7 km/h 37 km/h 58 % 0 mm 350 W/m2
14:04 6.3 °C -1.4 °C 1009.4 hPa NW 22.5 km/h 41.8 km/h 58 % 0 mm 353 W/m2
14:09 6.4 °C -1.1 °C 1009.7 hPa WNW 17.7 km/h 33.8 km/h 59 % 0 mm 345 W/m2
14:14 6.2 °C -1.4 °C 1009.7 hPa NW 20.9 km/h 40.2 km/h 58 % 0 mm 49 W/m2
14:19 5.9 °C -1.7 °C 1009.7 hPa NW 17.7 km/h 40.2 km/h 58 % 0 mm 295 W/m2
14:24 5.9 °C -1.5 °C 1009.7 hPa NW 24.1 km/h 48.3 km/h 59 % 0 mm 309 W/m2
14:29 6 °C -1.7 °C 1010 hPa NW 14.5 km/h 32.2 km/h 58 % 0 mm 302 W/m2
14:34 6.2 °C -1.4 °C 1010 hPa NW 25.7 km/h 35.4 km/h 58 % 0 mm 294 W/m2
14:39 6.2 °C -1.7 °C 1010 hPa NW 24.1 km/h 37 km/h 57 % 0 mm 285 W/m2
14:45 6.3 °C -1.6 °C 1010 hPa NW 22.5 km/h 33.8 km/h 57 % 0 mm 279 W/m2
14:50 6.2 °C -1.7 °C 1010 hPa NW 22.5 km/h 37 km/h 57 % 0 mm 272 W/m2
14:55 6.2 °C -1.7 °C 1010.4 hPa NW 17.7 km/h 32.2 km/h 57 % 0 mm 264 W/m2
15:00 6.3 °C -1.4 °C 1010.4 hPa NW 20.9 km/h 35.4 km/h 58 % 0 mm 250 W/m2
15:05 6.3 °C -1.4 °C 1010.4 hPa NW 19.3 km/h 32.2 km/h 58 % 0 mm 243 W/m2
15:10 6.1 °C -1.6 °C 1010.4 hPa NW 17.7 km/h 30.6 km/h 58 % 0 mm 58 W/m2
15:15 5.9 °C -1.5 °C 1010.7 hPa NW 17.7 km/h 32.2 km/h 59 % 0 mm 178 W/m2
15:20 5.8 °C -1.6 °C 1010.7 hPa NW 17.7 km/h 25.7 km/h 59 % 0 mm 37 W/m2
15:25 5.5 °C -2.1 °C 1011.1 hPa NW 22.5 km/h 37 km/h 58 % 0 mm 42 W/m2
15:30 5.3 °C -2.1 °C 1010.7 hPa NW 20.9 km/h 33.8 km/h 59 % 0 mm 62 W/m2
15:35 5.2 °C -1.9 °C 1011.1 hPa NW 17.7 km/h 32.2 km/h 60 % 0 mm 179 W/m2
15:40 5.2 °C -1.9 °C 1011.1 hPa NW 19.3 km/h 33.8 km/h 60 % 0 mm 163 W/m2
15:45 5.2 °C -1.7 °C 1011.1 hPa NW 16.1 km/h 29 km/h 61 % 0 mm 42 W/m2
15:50 5.2 °C -1.7 °C 1011.1 hPa NW 19.3 km/h 37 km/h 61 % 0 mm 33 W/m2
15:55 5.1 °C -1.8 °C 1011.4 hPa WNW 17.7 km/h 30.6 km/h 61 % 0 mm 32 W/m2
16:00 5.1 °C -1.8 °C 1011.7 hPa NW 22.5 km/h 33.8 km/h 61 % 0 mm 32 W/m2
16:05 5.1 °C -1.8 °C 1011.7 hPa NW 17.7 km/h 29 km/h 61 % 0 mm 35 W/m2
16:10 5 °C -1.9 °C 1011.7 hPa NW 16.1 km/h 30.6 km/h 61 % 0 mm 28 W/m2
16:15 4.9 °C -2.2 °C 1011.7 hPa NW 16.1 km/h 25.7 km/h 60 % 0 mm 26 W/m2
16:20 4.9 °C -1.8 °C 1012.1 hPa WNW 12.9 km/h 20.9 km/h 62 % 0 mm 25 W/m2
16:25 4.9 °C -0.9 °C 1012.1 hPa WNW 20.9 km/h 33.8 km/h 66 % 0 mm 21 W/m2
16:31 4.8 °C -0.6 °C 1012.1 hPa WNW 17.7 km/h 25.7 km/h 68 % 0 mm 19 W/m2
16:36 4.7 °C -0.5 °C 1012.4 hPa WNW 14.5 km/h 22.5 km/h 69 % 0 mm 18 W/m2
16:41 4.5 °C -0.5 °C 1012.4 hPa WNW 12.9 km/h 22.5 km/h 70 % 0 mm 16 W/m2
16:46 4.4 °C -0.4 °C 1012.4 hPa WNW 14.5 km/h 22.5 km/h 71 % 0 mm 14 W/m2
16:51 4.3 °C -0.3 °C 1012.4 hPa WNW 11.3 km/h 19.3 km/h 72 % 0 mm 11 W/m2
16:56 4.2 °C 0 °C 1012.4 hPa WNW 14.5 km/h 24.1 km/h 74 % 0 mm 9 W/m2
17:01 4.1 °C 0.1 °C 1012.4 hPa WNW 11.3 km/h 19.3 km/h 75 % 0 mm 7 W/m2
17:06 3.9 °C 0.1 °C 1012.4 hPa WNW 11.3 km/h 16.1 km/h 76 % 0 mm 5 W/m2
17:11 3.8 °C 0.1 °C 1012.8 hPa WNW 8 km/h 14.5 km/h 77 % 0 mm 0 W/m2
17:16 3.7 °C 0.2 °C 1012.8 hPa WNW 9.7 km/h 19.3 km/h 78 % 0 mm 0 W/m2
17:21 3.6 °C 0.1 °C 1012.8 hPa WNW 12.9 km/h 17.7 km/h 78 % 0 mm 0 W/m2
17:26 3.4 °C 0.1 °C 1013.1 hPa WNW 12.9 km/h 20.9 km/h 79 % 0 mm 0 W/m2
17:31 3.3 °C 0 °C 1013.1 hPa WNW 12.9 km/h 19.3 km/h 79 % 0 mm 0 W/m2
17:36 3.3 °C 0.2 °C 1013.1 hPa WNW 12.9 km/h 22.5 km/h 80 % 0 mm 0 W/m2
17:41 3.2 °C 0.1 °C 1013.1 hPa WNW 12.9 km/h 20.9 km/h 80 % 0 mm 0 W/m2
17:46 3.2 °C 0.3 °C 1013.4 hPa WNW 16.1 km/h 24.1 km/h 81 % 0 mm 0 W/m2
17:51 3.1 °C 0.2 °C 1013.4 hPa WNW 16.1 km/h 22.5 km/h 81 % 0 mm 0 W/m2
17:56 3.1 °C 0.2 °C 1013.4 hPa WNW 14.5 km/h 19.3 km/h 81 % 0 mm 0 W/m2
18:01 3.1 °C 0.3 °C 1013.4 hPa WNW 16.1 km/h 22.5 km/h 82 % 0 mm 0 W/m2
18:06 3 °C 0.2 °C 1013.8 hPa WNW 16.1 km/h 33.8 km/h 82 % 0 mm 0 W/m2
18:11 3 °C 0.2 °C 1013.8 hPa WNW 16.1 km/h 32.2 km/h 82 % 0 mm 0 W/m2
18:16 2.9 °C 0.1 °C 1013.8 hPa WNW 12.9 km/h 22.5 km/h 82 % 0 mm 0 W/m2
18:21 2.9 °C 0.1 °C 1014.1 hPa WNW 16.1 km/h 25.7 km/h 82 % 0 mm 0 W/m2
18:26 2.9 °C 0.1 °C 1014.1 hPa WNW 12.9 km/h 24.1 km/h 82 % 0 mm 0 W/m2
18:31 2.8 °C 0.1 °C 1014.1 hPa WNW 11.3 km/h 24.1 km/h 82 % 0 mm 0 W/m2
18:36 2.8 °C 0.1 °C 1014.1 hPa WNW 17.7 km/h 29 km/h 82 % 0 mm 0 W/m2
18:41 2.8 °C 0.1 °C 1014.1 hPa WNW 12.9 km/h 20.9 km/h 82 % 0 mm 0 W/m2
18:46 2.7 °C -0.1 °C 1014.4 hPa WNW 14.5 km/h 22.5 km/h 82 % 0 mm 0 W/m2
18:51 2.7 °C 0.1 °C 1014.4 hPa WNW 9.7 km/h 16.1 km/h 83 % 0 mm 0 W/m2
18:56 2.6 °C 0 °C 1014.4 hPa WNW 12.9 km/h 17.7 km/h 83 % 0 mm 0 W/m2
19:01 2.6 °C 0 °C 1014.8 hPa WNW 11.3 km/h 16.1 km/h 83 % 0 mm 0 W/m2
19:06 2.5 °C -0.1 °C 1014.4 hPa WNW 8 km/h 12.9 km/h 83 % 0 mm 0 W/m2
19:12 2.4 °C -0.2 °C 1014.8 hPa WNW 8 km/h 12.9 km/h 83 % 0 mm 0 W/m2
19:16 2.4 °C -0.2 °C 1014.8 hPa WNW 11.3 km/h 16.1 km/h 83 % 0 mm 0 W/m2
19:22 2.3 °C -0.3 °C 1014.8 hPa WNW 9.7 km/h 14.5 km/h 83 % 0 mm 0 W/m2
19:27 2.3 °C -0.3 °C 1014.8 hPa WNW 9.7 km/h 17.7 km/h 83 % 0 mm 0 W/m2
19:32 2.3 °C -0.1 °C 1014.8 hPa WNW 11.3 km/h 17.7 km/h 84 % 0 mm 0 W/m2
19:37 2.3 °C -0.1 °C 1014.8 hPa WNW 12.9 km/h 20.9 km/h 84 % 0 mm 0 W/m2
19:42 2.3 °C -0.1 °C 1014.8 hPa WNW 11.3 km/h 19.3 km/h 84 % 0 mm 0 W/m2
19:47 2.3 °C -0.1 °C 1014.8 hPa WNW 9.7 km/h 14.5 km/h 84 % 0 mm 0 W/m2
19:52 2.3 °C -0.1 °C 1014.8 hPa WNW 11.3 km/h 17.7 km/h 84 % 0 mm 0 W/m2
19:57 2.3 °C 0.1 °C 1014.8 hPa WNW 11.3 km/h 17.7 km/h 85 % 0 mm 0 W/m2
20:02 2.3 °C -0.1 °C 1014.8 hPa WNW 12.9 km/h 20.9 km/h 84 % 0 mm 0 W/m2
20:07 2.3 °C -0.1 °C 1014.8 hPa WNW 11.3 km/h 19.3 km/h 84 % 0 mm 0 W/m2
20:12 2.3 °C -0.1 °C 1015.1 hPa WNW 9.7 km/h 14.5 km/h 84 % 0 mm 0 W/m2
20:17 2.3 °C -0.1 °C 1015.1 hPa WNW 9.7 km/h 14.5 km/h 84 % 0 mm 0 W/m2
20:22 2.2 °C -0.2 °C 1015.1 hPa WNW 12.9 km/h 17.7 km/h 84 % 0 mm 0 W/m2
20:27 2.2 °C -0.2 °C 1015.1 hPa WNW 11.3 km/h 14.5 km/h 84 % 0 mm 0 W/m2
20:32 2.2 °C -0.2 °C 1015.1 hPa WNW 12.9 km/h 19.3 km/h 84 % 0 mm 0 W/m2
20:37 2.2 °C -0.2 °C 1015.1 hPa WNW 11.3 km/h 17.7 km/h 84 % 0 mm 0 W/m2
20:42 2.2 °C -0.2 °C 1015.1 hPa WNW 9.7 km/h 14.5 km/h 84 % 0 mm 0 W/m2
20:47 2.1 °C -0.3 °C 1015.1 hPa WNW 8 km/h 12.9 km/h 84 % 0 mm 0 W/m2
20:52 2 °C -0.4 °C 1015.1 hPa WNW 8 km/h 14.5 km/h 84 % 0 mm 0 W/m2
20:57 1.9 °C -0.5 °C 1015.1 hPa NW 9.7 km/h 12.9 km/h 84 % 0 mm 0 W/m2
21:02 1.8 °C -0.4 °C 1015.1 hPa WNW 11.3 km/h 17.7 km/h 85 % 0 mm 0 W/m2
21:07 1.8 °C -0.4 °C 1015.1 hPa WNW 12.9 km/h 17.7 km/h 85 % 0 mm 0 W/m2
21:12 1.9 °C -0.3 °C 1015.1 hPa WNW 11.3 km/h 16.1 km/h 85 % 0 mm 0 W/m2
21:17 1.8 °C -0.4 °C 1015.1 hPa West 11.3 km/h 16.1 km/h 85 % 0 mm 0 W/m2
21:23 1.8 °C -0.4 °C 1015.5 hPa WNW 9.7 km/h 12.9 km/h 85 % 0 mm 0 W/m2
21:28 1.8 °C -0.4 °C 1015.5 hPa WNW 9.7 km/h 12.9 km/h 85 % 0 mm 0 W/m2
21:33 1.7 °C -0.6 °C 1015.5 hPa WNW 9.7 km/h 17.7 km/h 85 % 0 mm 0 W/m2
21:38 1.7 °C -0.4 °C 1015.5 hPa NW 8 km/h 11.3 km/h 86 % 0 mm 0 W/m2
21:43 1.7 °C -0.4 °C 1015.5 hPa WNW 8 km/h 12.9 km/h 86 % 0 mm 0 W/m2
21:48 1.7 °C -0.4 °C 1015.5 hPa WNW 6.4 km/h 9.7 km/h 86 % 0 mm 0 W/m2
21:53 1.6 °C -0.5 °C 1015.5 hPa WNW 6.4 km/h 8 km/h 86 % 0 mm 0 W/m2
21:58 1.5 °C -0.6 °C 1015.5 hPa WNW 8 km/h 12.9 km/h 86 % 0 mm 0 W/m2
22:03 1.4 °C -0.7 °C 1015.1 hPa WNW 9.7 km/h 16.1 km/h 86 % 0 mm 0 W/m2
22:08 1.5 °C -0.4 °C 1015.5 hPa WNW 11.3 km/h 14.5 km/h 87 % 0 mm 0 W/m2
22:13 1.6 °C -0.3 °C 1015.5 hPa WNW 9.7 km/h 14.5 km/h 87 % 0 mm 0 W/m2
22:18 1.6 °C -0.3 °C 1015.5 hPa WNW 11.3 km/h 17.7 km/h 87 % 0 mm 0 W/m2
22:23 1.6 °C -0.3 °C 1015.5 hPa WNW 14.5 km/h 19.3 km/h 87 % 0 mm 0 W/m2
22:28 1.7 °C -0.2 °C 1015.5 hPa WNW 16.1 km/h 22.5 km/h 87 % 0 mm 0 W/m2
22:33 1.8 °C -0.3 °C 1015.5 hPa WNW 9.7 km/h 16.1 km/h 86 % 0 mm 0 W/m2
22:38 1.8 °C -0.3 °C 1015.5 hPa West 6.4 km/h 11.3 km/h 86 % 0 mm 0 W/m2
22:43 1.7 °C -0.4 °C 1015.5 hPa WNW 11.3 km/h 19.3 km/h 86 % 0 mm 0 W/m2
22:48 1.6 °C -0.5 °C 1015.5 hPa WNW 9.7 km/h 14.5 km/h 86 % 0 mm 0 W/m2
22:53 1.6 °C -0.5 °C 1015.5 hPa West 3.2 km/h 9.7 km/h 86 % 0 mm 0 W/m2
22:58 1.5 °C -0.6 °C 1015.5 hPa WNW 1.6 km/h 3.2 km/h 86 % 0 mm 0 W/m2
23:03 1.4 °C -0.7 °C 1015.5 hPa Calm   1.6 km/h 86 % 0 mm 0 W/m2
23:08 1.2 °C -0.9 °C 1015.5 hPa Calm   1.6 km/h 86 % 0 mm 0 W/m2
23:13 1.1 °C -1 °C 1015.5 hPa Calm     86 % 0 mm 0 W/m2
23:18 0.9 °C -1.2 °C 1015.5 hPa Calm     86 % 0 mm 0 W/m2
23:23 0.7 °C -1.4 °C 1015.5 hPa Calm     86 % 0 mm 0 W/m2
23:28 0.6 °C -1.3 °C 1015.1 hPa Calm     87 % 0 mm 0 W/m2
23:33 0.5 °C -1.4 °C 1015.5 hPa West 1.6 km/h 6.4 km/h 87 % 0 mm 0 W/m2
23:38 0.5 °C -1.3 °C 1015.5 hPa Calm     88 % 0 mm 0 W/m2
23:43 0.5 °C -1.3 °C 1015.5 hPa West 1.6 km/h 3.2 km/h 88 % 0 mm 0 W/m2
23:48 0.6 °C -1 °C 1015.5 hPa Calm   3.2 km/h 89 % 0 mm 0 W/m2
23:53 0.6 °C -1 °C 1015.5 hPa Calm     89 % 0 mm 0 W/m2
23:58 0.6 °C -1.2 °C 1015.5 hPa Calm     88 % 0 mm 0 W/m2
Delerius-Weather
Compliments of Weather Underground - 2.25 mb

Data updates at regular intervals.